createdAt,value
2018-08-10T00:00:46.918Z,0.70
2018-08-10T00:03:14.316Z,0.60
2018-08-10T00:05:42.280Z,0.60
2018-08-10T00:08:09.638Z,0.70
2018-08-10T00:10:36.948Z,0.80
2018-08-10T00:13:04.342Z,0.70
2018-08-10T00:15:31.664Z,0.90
2018-08-10T00:17:59.071Z,0.40
2018-08-10T00:20:26.364Z,0.40
2018-08-10T00:22:53.682Z,0.80
2018-08-10T00:25:21.062Z,0.67
2018-08-10T00:27:48.426Z,0.43
2018-08-10T00:30:16.457Z,0.50
2018-08-10T00:32:44.981Z,0.67
2018-08-10T00:35:12.333Z,0.50
2018-08-10T00:37:40.473Z,0.60
2018-08-10T00:40:08.648Z,0.70
2018-08-10T00:42:36.125Z,0.50
2018-08-10T00:45:04.194Z,0.57
2018-08-10T00:47:31.505Z,0.53
2018-08-10T00:49:59.006Z,0.57
2018-08-10T00:52:26.288Z,0.43
2018-08-10T00:54:53.592Z,0.50
2018-08-10T00:57:20.970Z,0.50
2018-08-10T00:59:48.445Z,0.50
2018-08-10T01:02:15.843Z,0.40
2018-08-10T01:04:43.162Z,0.40
2018-08-10T01:07:10.552Z,0.37
2018-08-10T01:09:37.901Z,0.50
2018-08-10T01:12:06.079Z,0.40
2018-08-10T01:14:33.383Z,0.50
2018-08-10T01:17:01.168Z,0.40
2018-08-10T01:19:28.510Z,0.40
2018-08-10T01:21:56.092Z,0.30
2018-08-10T01:24:23.404Z,0.40
2018-08-10T01:26:50.682Z,0.43
2018-08-10T01:29:17.993Z,0.30
2018-08-10T01:31:45.280Z,0.50
2018-08-10T01:34:12.636Z,0.30
2018-08-10T01:36:40.054Z,0.40
2018-08-10T01:39:08.902Z,0.53
2018-08-10T01:41:36.230Z,0.40
2018-08-10T01:44:03.694Z,0.40
2018-08-10T01:46:31.038Z,0.50
2018-08-10T01:48:58.363Z,0.40
2018-08-10T01:51:25.635Z,0.40
2018-08-10T01:53:52.918Z,0.40
2018-08-10T01:56:20.406Z,0.27
2018-08-10T01:58:47.700Z,0.40
2018-08-10T02:01:15.020Z,0.50
2018-08-10T02:03:42.352Z,0.57
2018-08-10T02:06:10.505Z,0.47
2018-08-10T02:08:37.847Z,0.60
2018-08-10T02:11:05.201Z,0.40
2018-08-10T02:13:32.511Z,0.50
2018-08-10T02:15:59.777Z,0.30
2018-08-10T02:18:27.077Z,0.50
2018-08-10T02:20:54.387Z,0.40
2018-08-10T02:23:21.732Z,0.40
2018-08-10T02:25:49.060Z,0.50
2018-08-10T02:28:16.382Z,0.40
2018-08-10T02:30:43.696Z,0.30
2018-08-10T02:33:11.256Z,0.50
2018-08-10T02:35:38.573Z,0.40
2018-08-10T02:38:05.939Z,0.30
2018-08-10T02:40:33.281Z,0.50
2018-08-10T02:43:00.591Z,0.30
2018-08-10T02:45:27.952Z,0.40
2018-08-10T02:47:55.257Z,0.50
2018-08-10T02:50:22.528Z,0.50
2018-08-10T02:52:49.849Z,0.50
2018-08-10T02:55:17.215Z,0.40
2018-08-10T02:57:44.569Z,0.40
2018-08-10T03:00:13.337Z,0.40
2018-08-10T03:02:41.051Z,0.60
2018-08-10T03:05:08.832Z,0.50
2018-08-10T03:07:36.300Z,0.50
2018-08-10T03:10:03.740Z,0.50
2018-08-10T03:12:31.051Z,0.80
2018-08-10T03:14:58.325Z,0.60
2018-08-10T03:17:25.647Z,0.70
2018-08-10T03:19:52.997Z,0.50
2018-08-10T03:22:20.319Z,0.50
2018-08-10T03:24:47.606Z,0.50
2018-08-10T03:27:15.404Z,0.47
2018-08-10T03:29:42.828Z,0.40
2018-08-10T03:32:10.133Z,0.60
2018-08-10T03:34:37.437Z,0.50
2018-08-10T03:37:04.788Z,0.50
2018-08-10T03:39:32.073Z,0.50
2018-08-10T03:41:59.411Z,0.40
2018-08-10T03:44:26.942Z,0.60
2018-08-10T03:46:54.272Z,1.53
2018-08-10T03:49:21.692Z,0.53
2018-08-10T03:51:48.997Z,0.63
2018-08-10T03:54:16.301Z,0.40
2018-08-10T03:56:43.585Z,0.50
2018-08-10T03:59:10.872Z,0.50
2018-08-10T04:01:38.202Z,0.53
2018-08-10T04:04:05.572Z,0.50
2018-08-10T04:06:32.910Z,0.50
2018-08-10T04:09:00.228Z,0.83
2018-08-10T04:11:27.574Z,0.43
2018-08-10T04:13:54.884Z,0.50
2018-08-10T04:16:22.194Z,0.90
2018-08-10T04:18:49.481Z,0.50
2018-08-10T04:21:16.810Z,0.63
2018-08-10T04:23:44.231Z,0.80
2018-08-10T04:26:11.677Z,0.57
2018-08-10T04:28:39.046Z,0.50
2018-08-10T04:31:06.396Z,0.50
2018-08-10T04:33:33.763Z,0.60
2018-08-10T04:36:01.105Z,0.67
2018-08-10T04:38:28.468Z,0.77
2018-08-10T04:40:55.817Z,0.63
2018-08-10T04:43:23.168Z,0.50
2018-08-10T04:45:50.471Z,0.60
2018-08-10T04:48:17.787Z,0.57
2018-08-10T04:50:45.527Z,0.60
2018-08-10T04:53:12.815Z,0.60
2018-08-10T04:55:40.138Z,0.67
2018-08-10T04:58:07.500Z,0.70
2018-08-10T05:00:34.825Z,0.90
2018-08-10T05:03:02.293Z,0.93
2018-08-10T05:05:29.795Z,0.90
2018-08-10T05:07:57.367Z,0.60
2018-08-10T05:10:24.887Z,0.83
2018-08-10T05:12:52.163Z,0.57
2018-08-10T05:15:19.474Z,0.60
2018-08-10T05:17:46.877Z,0.50
2018-08-10T05:20:14.184Z,0.90
2018-08-10T05:22:42.327Z,1.63
2018-08-10T05:25:09.648Z,1.03
2018-08-10T05:27:36.979Z,1.00
2018-08-10T05:30:05.189Z,0.90
2018-08-10T05:32:32.512Z,0.80
2018-08-10T05:34:59.848Z,0.60
2018-08-10T05:37:27.725Z,0.60
2018-08-10T05:39:55.102Z,0.77
2018-08-10T05:42:22.563Z,0.60
2018-08-10T05:44:49.906Z,1.20
2018-08-10T05:47:52.187Z,0.80
2018-08-10T05:50:19.654Z,0.93
2018-08-10T05:52:46.996Z,0.83
2018-08-10T05:55:14.290Z,0.73
2018-08-10T05:57:41.600Z,0.90
2018-08-10T06:00:09.382Z,0.73
2018-08-10T06:02:36.717Z,0.77
2018-08-10T06:05:04.157Z,0.60
2018-08-10T06:07:31.495Z,0.93
2018-08-10T06:09:58.795Z,0.67
2018-08-10T06:12:26.187Z,0.67
2018-08-10T06:14:54.070Z,0.70
2018-08-10T06:17:21.435Z,0.50
2018-08-10T06:19:48.767Z,0.80
2018-08-10T06:22:16.097Z,0.83
2018-08-10T06:24:43.478Z,1.00
2018-08-10T06:27:10.808Z,1.10
2018-08-10T06:29:38.095Z,0.60
2018-08-10T06:32:05.453Z,0.83
2018-08-10T06:34:33.038Z,1.00
2018-08-10T06:37:00.419Z,1.20
2018-08-10T06:39:27.789Z,0.90
2018-08-10T06:41:55.113Z,0.70
2018-08-10T06:44:22.423Z,0.70
2018-08-10T06:46:54.392Z,0.70
2018-08-10T06:49:22.422Z,0.73
2018-08-10T06:51:49.697Z,0.80
2018-08-10T06:54:17.074Z,0.80
2018-08-10T06:56:45.283Z,0.90
2018-08-10T06:59:12.640Z,0.70
2018-08-10T07:01:41.031Z,0.70
2018-08-10T07:04:09.528Z,0.90
2018-08-10T07:06:37.652Z,0.80
2018-08-10T07:09:11.217Z,0.70
2018-08-10T07:11:38.535Z,0.70
2018-08-10T07:14:05.938Z,0.80
2018-08-10T07:16:34.333Z,0.70
2018-08-10T07:19:32.581Z,0.80
2018-08-10T07:22:04.809Z,0.77
2018-08-10T07:24:32.190Z,0.90
2018-08-10T07:26:59.703Z,0.97
2018-08-10T07:29:27.845Z,0.70
2018-08-10T07:31:55.186Z,0.83
2018-08-10T07:34:22.485Z,1.10
2018-08-10T07:36:49.796Z,0.63
2018-08-10T07:39:17.120Z,0.80
2018-08-10T07:41:44.821Z,0.57
2018-08-10T07:44:13.275Z,0.60
2018-08-10T07:46:40.720Z,0.77
2018-08-10T07:49:08.027Z,0.63
2018-08-10T07:51:36.221Z,0.80
2018-08-10T07:54:04.228Z,0.70
2018-08-10T07:56:45.354Z,0.80
2018-08-10T08:02:06.387Z,1.10
2018-08-10T08:04:34.930Z,0.93
2018-08-10T08:07:02.795Z,0.87
2018-08-10T08:09:43.451Z,0.90
2018-08-10T08:12:11.174Z,0.60
2018-08-10T08:14:40.516Z,0.87
2018-08-10T08:17:08.230Z,1.20
2018-08-10T08:19:36.021Z,0.80
2018-08-10T08:22:04.235Z,1.27
2018-08-10T08:24:44.317Z,1.00
2018-08-10T08:27:13.008Z,0.60
2018-08-10T08:29:41.087Z,0.80
2018-08-10T08:32:08.468Z,0.87
2018-08-10T08:34:36.021Z,0.80
2018-08-10T08:37:04.394Z,0.60
2018-08-10T08:39:38.177Z,0.73
2018-08-10T08:42:05.756Z,0.50
2018-08-10T08:49:05.234Z,0.67
2018-08-10T08:51:48.438Z,0.90
2018-08-10T08:56:24.822Z,0.63
2018-08-10T08:58:58.460Z,0.77
2018-08-10T09:01:26.481Z,0.73
2018-08-10T09:05:05.657Z,0.70
2018-08-10T09:07:33.197Z,0.63
2018-08-10T09:10:01.357Z,0.60
2018-08-10T09:12:30.336Z,0.80
2018-08-10T09:23:37.041Z,0.87
2018-08-10T09:26:09.383Z,0.80
2018-08-10T09:28:36.680Z,1.10
2018-08-10T09:31:05.625Z,0.80
2018-08-10T09:36:07.852Z,1.23
2018-08-10T09:41:23.550Z,0.60
2018-08-10T09:43:59.927Z,0.63
2018-08-10T09:49:13.378Z,0.70
2018-08-10T09:51:47.264Z,0.60
2018-08-10T09:54:27.585Z,0.57
2018-08-10T09:57:09.838Z,0.90
2018-08-10T09:59:39.043Z,0.60
2018-08-10T10:02:09.689Z,0.67
2018-08-10T10:04:38.566Z,0.70
2018-08-10T10:07:07.659Z,0.60
2018-08-10T10:09:35.040Z,0.50
2018-08-10T10:12:02.381Z,0.40
2018-08-10T10:14:32.888Z,0.50
2018-08-10T10:19:56.425Z,0.53
2018-08-10T10:22:24.207Z,0.50
2018-08-10T10:24:52.741Z,0.50
2018-08-10T10:27:20.826Z,0.77
2018-08-10T10:29:50.222Z,0.33
2018-08-10T10:32:19.198Z,0.60
2018-08-10T10:34:46.597Z,0.60
2018-08-10T10:37:15.080Z,0.50
2018-08-10T10:39:42.405Z,0.50
2018-08-10T10:42:09.737Z,0.50
2018-08-10T10:44:37.085Z,0.70
2018-08-10T10:47:04.587Z,0.83
2018-08-10T10:49:43.948Z,0.80
2018-08-10T10:52:11.360Z,0.77
2018-08-10T10:54:41.005Z,0.73
2018-08-10T10:57:12.584Z,0.93
2018-08-10T10:59:41.760Z,0.70
2018-08-10T11:02:09.240Z,0.70
2018-08-10T11:04:36.536Z,0.80
2018-08-10T11:07:06.866Z,0.50
2018-08-10T11:09:34.242Z,0.70
2018-08-10T11:12:03.727Z,1.10
2018-08-10T11:14:31.009Z,0.63
2018-08-10T11:16:58.723Z,0.60
2018-08-10T11:19:38.680Z,0.60
2018-08-10T11:22:06.368Z,0.70
2018-08-10T11:24:33.741Z,0.60
2018-08-10T11:27:01.090Z,0.60
2018-08-10T11:29:28.544Z,0.80
2018-08-10T11:31:55.956Z,0.70
2018-08-10T11:34:23.201Z,0.60
2018-08-10T11:36:50.541Z,0.50
2018-08-10T11:39:17.863Z,0.70
2018-08-10T11:41:45.240Z,0.83
2018-08-10T11:44:12.928Z,0.50
2018-08-10T11:46:40.235Z,0.70
2018-08-10T11:49:07.544Z,0.60
2018-08-10T11:51:34.943Z,0.67
2018-08-10T11:54:02.283Z,0.80
2018-08-10T11:56:29.764Z,0.77
2018-08-10T11:58:57.224Z,0.70
2018-08-10T12:04:13.715Z,1.10
2018-08-10T12:06:41.036Z,1.10
2018-08-10T12:09:09.776Z,0.90
2018-08-10T12:11:38.496Z,0.80
2018-08-10T12:14:05.822Z,0.70
2018-08-10T12:16:33.336Z,0.50
2018-08-10T12:19:00.661Z,0.77
2018-08-10T12:21:28.137Z,0.80
2018-08-10T12:23:55.849Z,0.70
2018-08-10T12:26:23.331Z,0.63
2018-08-10T12:28:52.187Z,0.80
2018-08-10T12:31:20.029Z,0.70
2018-08-10T12:33:47.804Z,1.10
2018-08-10T12:36:15.435Z,0.90
2018-08-10T12:38:42.750Z,0.70
2018-08-10T12:41:10.217Z,0.70
2018-08-10T12:43:37.712Z,0.63
2018-08-10T12:46:05.545Z,0.80
2018-08-10T12:48:32.908Z,0.80
2018-08-10T12:51:01.023Z,0.70
2018-08-10T12:53:28.456Z,0.70
2018-08-10T12:55:55.893Z,0.70
2018-08-10T12:58:23.468Z,0.60
2018-08-10T13:00:50.825Z,0.90
2018-08-10T13:03:18.325Z,0.83
2018-08-10T13:05:45.646Z,0.70
2018-08-10T13:08:13.025Z,0.90
2018-08-10T13:10:40.419Z,0.80
2018-08-10T13:13:07.731Z,0.80
2018-08-10T13:15:35.127Z,1.00
2018-08-10T13:18:03.104Z,0.70
2018-08-10T13:20:30.436Z,0.90
2018-08-10T13:22:57.770Z,0.93
2018-08-10T13:25:25.157Z,0.77
2018-08-10T13:27:52.556Z,0.63
2018-08-10T13:30:19.895Z,0.80
2018-08-10T13:32:47.274Z,0.80
2018-08-10T13:35:14.639Z,0.80
2018-08-10T13:37:42.487Z,1.20
2018-08-10T13:40:11.602Z,1.00
2018-08-10T13:42:38.935Z,0.60
2018-08-10T13:45:07.773Z,0.70
2018-08-10T13:47:35.154Z,1.00
2018-08-10T13:50:02.984Z,0.70
2018-08-10T13:52:30.302Z,0.63
2018-08-10T13:54:57.580Z,0.70
2018-08-10T13:57:24.909Z,0.70
2018-08-10T13:59:52.252Z,0.80
2018-08-10T14:02:19.572Z,0.80
2018-08-10T14:04:46.906Z,0.67
2018-08-10T14:07:14.284Z,0.80
2018-08-10T14:09:41.671Z,0.60
2018-08-10T14:12:09.121Z,0.77
2018-08-10T14:14:36.438Z,0.80
2018-08-10T14:17:03.793Z,1.00
2018-08-10T14:19:31.117Z,0.80
2018-08-10T14:21:58.639Z,0.73
2018-08-10T14:24:26.089Z,0.97
2018-08-10T14:26:53.408Z,0.70
2018-08-10T14:29:20.996Z,0.90
2018-08-10T14:31:48.541Z,0.93
2018-08-10T14:34:15.909Z,0.87
2018-08-10T14:36:44.063Z,0.90
2018-08-10T14:39:14.543Z,0.93
2018-08-10T14:41:42.007Z,0.97
2018-08-10T14:44:10.062Z,0.80
2018-08-10T14:46:37.566Z,0.70
2018-08-10T14:49:05.543Z,0.67
2018-08-10T14:51:32.937Z,0.60
2018-08-10T14:54:00.292Z,0.97
2018-08-10T14:56:27.608Z,0.80
2018-08-10T14:58:54.979Z,0.80
2018-08-10T15:01:22.398Z,0.63
2018-08-10T15:03:49.713Z,0.40
2018-08-10T15:06:17.059Z,0.93
2018-08-10T15:08:45.404Z,0.67
2018-08-10T15:11:12.818Z,0.73
2018-08-10T15:13:40.288Z,1.10
2018-08-10T15:16:07.697Z,0.93
2018-08-10T15:18:35.030Z,0.93
2018-08-10T15:21:02.397Z,0.90
2018-08-10T15:23:29.714Z,0.83
2018-08-10T15:25:58.225Z,0.70
2018-08-10T15:28:28.994Z,0.77
2018-08-10T15:30:56.303Z,1.10
2018-08-10T15:33:23.843Z,0.87
2018-08-10T15:35:51.166Z,0.60
2018-08-10T15:38:19.114Z,0.80
2018-08-10T15:40:46.658Z,0.60
2018-08-10T15:43:14.676Z,1.00
2018-08-10T15:45:42.607Z,1.00
2018-08-10T15:48:10.971Z,0.90
2018-08-10T15:50:38.272Z,0.63
2018-08-10T15:53:05.604Z,0.73
2018-08-10T15:55:32.991Z,0.87
2018-08-10T15:58:00.347Z,0.53
2018-08-10T16:00:27.723Z,1.00
2018-08-10T16:02:55.152Z,0.67
2018-08-10T16:05:22.675Z,1.10
2018-08-10T16:07:50.064Z,0.90
2018-08-10T16:10:17.644Z,0.87
2018-08-10T16:12:44.974Z,0.70
2018-08-10T16:15:14.518Z,1.00
2018-08-10T16:17:41.955Z,0.90
2018-08-10T16:20:10.335Z,1.00
2018-08-10T16:22:37.775Z,0.70
2018-08-10T16:25:05.933Z,0.80
2018-08-10T16:27:33.243Z,1.10
2018-08-10T16:30:00.838Z,1.23
2018-08-10T16:32:28.248Z,0.80
2018-08-10T16:34:55.685Z,1.20
2018-08-10T16:37:23.043Z,1.00
2018-08-10T16:39:50.382Z,0.93
2018-08-10T16:42:17.756Z,2.13
2018-08-10T16:44:45.278Z,0.90
2018-08-10T16:47:12.642Z,0.73
2018-08-10T16:49:39.984Z,0.67
2018-08-10T16:52:07.487Z,0.90
2018-08-10T16:54:34.949Z,0.87
2018-08-10T16:57:02.347Z,1.20
2018-08-10T16:59:29.712Z,1.10
2018-08-10T17:01:57.093Z,1.10
2018-08-10T17:04:24.676Z,0.70
2018-08-10T17:06:52.121Z,0.60
2018-08-10T17:09:19.415Z,0.60
2018-08-10T17:11:46.731Z,0.77
2018-08-10T17:14:14.024Z,1.00
2018-08-10T17:16:41.741Z,0.90
2018-08-10T17:19:09.125Z,0.67
2018-08-10T17:21:36.500Z,0.90
2018-08-10T17:24:04.753Z,0.80
2018-08-10T17:26:32.559Z,0.70
2018-08-10T17:29:00.109Z,0.60
2018-08-10T17:31:27.653Z,0.97
2018-08-10T17:33:55.299Z,0.90
2018-08-10T17:36:22.962Z,0.80
2018-08-10T17:38:50.282Z,0.70
2018-08-10T17:41:17.683Z,0.97
2018-08-10T17:43:45.054Z,0.80
2018-08-10T17:46:12.434Z,0.70
2018-08-10T17:48:39.785Z,0.80
2018-08-10T17:51:07.414Z,0.80
2018-08-10T17:53:34.863Z,0.80
2018-08-10T17:56:02.209Z,0.90
2018-08-10T17:58:29.734Z,0.60
2018-08-10T18:00:57.082Z,1.10
2018-08-10T18:03:24.537Z,1.20
2018-08-10T18:05:51.937Z,0.83
2018-08-10T18:08:19.326Z,0.97
2018-08-10T18:10:46.685Z,0.80
2018-08-10T18:13:14.180Z,1.23
2018-08-10T18:15:41.660Z,1.07
2018-08-10T18:18:09.051Z,0.90
2018-08-10T18:20:36.407Z,1.10
2018-08-10T18:23:04.162Z,0.97
2018-08-10T18:25:31.570Z,1.10
2018-08-10T18:27:58.969Z,0.87
2018-08-10T18:30:26.524Z,1.00
2018-08-10T18:32:54.052Z,0.90
2018-08-10T18:35:21.479Z,1.20
2018-08-10T18:37:50.321Z,1.10
2018-08-10T18:40:17.924Z,1.00
2018-08-10T18:42:46.297Z,1.20
2018-08-10T18:45:15.644Z,1.30
2018-08-10T18:47:43.068Z,1.50
2018-08-10T18:50:11.366Z,1.53
2018-08-10T18:52:38.764Z,1.20
2018-08-10T18:55:06.668Z,1.60
2018-08-10T18:57:34.800Z,1.23
2018-08-10T19:00:03.766Z,1.50
2018-08-10T19:02:31.283Z,1.50
2018-08-10T19:04:58.567Z,1.30
2018-08-10T19:07:25.927Z,1.33
2018-08-10T19:09:55.411Z,1.70
2018-08-10T19:12:24.189Z,1.20
2018-08-10T19:14:51.622Z,1.27
2018-08-10T19:17:19.029Z,1.00
2018-08-10T19:19:46.702Z,1.30
2018-08-10T19:25:02.444Z,1.20
2018-08-10T19:27:32.785Z,1.37
2018-08-10T19:30:03.457Z,1.77
2018-08-10T19:32:42.378Z,1.40
2018-08-10T19:35:11.950Z,1.13
2018-08-10T19:37:43.999Z,1.17
2018-08-10T19:40:15.175Z,1.53
2018-08-10T19:42:42.738Z,1.30
2018-08-10T19:45:11.064Z,1.90
2018-08-10T19:47:38.890Z,2.37
2018-08-10T19:50:06.650Z,2.07
2018-08-10T19:52:35.175Z,2.50
2018-08-10T19:55:02.592Z,2.10
2018-08-10T19:57:29.947Z,1.97
2018-08-10T19:59:57.291Z,1.90
2018-08-10T20:02:24.613Z,2.20
2018-08-10T20:04:52.740Z,1.83
2018-08-10T20:07:20.836Z,1.90
2018-08-10T20:09:48.909Z,2.13
2018-08-10T20:12:16.970Z,2.40
2018-08-10T20:14:45.658Z,2.83
2018-08-10T20:17:13.115Z,2.33
2018-08-10T20:19:40.802Z,2.27
2018-08-10T20:22:12.910Z,2.67
2018-08-10T20:24:41.456Z,2.10
2018-08-10T20:27:09.330Z,1.97
2018-08-10T20:29:36.830Z,2.27
2018-08-10T20:32:08.245Z,2.30
2018-08-10T20:34:35.906Z,2.53
2018-08-10T20:37:04.027Z,2.07
2018-08-10T20:39:31.818Z,1.70
2018-08-10T20:41:59.625Z,2.07
2018-08-10T20:44:27.175Z,1.43
2018-08-10T20:46:55.336Z,1.70
2018-08-10T20:49:22.893Z,1.53
2018-08-10T20:51:51.237Z,1.47
2018-08-10T20:54:23.265Z,1.70
2018-08-10T20:56:50.647Z,1.43
2018-08-10T20:59:18.023Z,1.53
2018-08-10T21:01:45.462Z,1.50
2018-08-10T21:04:12.947Z,1.67
2018-08-10T21:06:40.655Z,1.70
2018-08-10T21:09:09.130Z,2.13
2018-08-10T21:11:36.605Z,1.50
2018-08-10T21:14:03.931Z,1.80
2018-08-10T21:16:31.387Z,1.87
2018-08-10T21:18:58.855Z,1.67
2018-08-10T21:21:26.274Z,1.50
2018-08-10T21:23:53.761Z,1.30
2018-08-10T21:26:21.111Z,1.40
2018-08-10T21:28:49.415Z,1.60
2018-08-10T21:31:16.804Z,1.20
2018-08-10T21:33:44.259Z,1.50
2018-08-10T21:36:11.600Z,1.40
2018-08-10T21:38:39.044Z,1.40
2018-08-10T21:41:06.443Z,1.60
2018-08-10T21:43:33.885Z,1.60
2018-08-10T21:46:01.352Z,1.57
2018-08-10T21:48:29.100Z,1.57
2018-08-10T21:50:56.409Z,1.70
2018-08-10T21:53:23.751Z,1.77
2018-08-10T21:55:51.057Z,1.70
2018-08-10T21:58:19.086Z,1.80
2018-08-10T22:00:52.211Z,1.47
2018-08-10T22:03:20.232Z,1.37
2018-08-10T22:05:47.952Z,1.30
2018-08-10T22:08:15.641Z,1.43
2018-08-10T22:10:42.973Z,0.90
2018-08-10T22:13:15.787Z,1.57
2018-08-10T22:15:48.645Z,1.20
2018-08-10T22:18:21.529Z,1.40
2018-08-10T22:20:48.818Z,1.50
2018-08-10T22:23:16.263Z,1.10
2018-08-10T22:25:43.675Z,1.50
2018-08-10T22:28:11.078Z,1.63
2018-08-10T22:30:38.435Z,1.40
2018-08-10T22:33:05.955Z,1.47
2018-08-10T22:35:33.306Z,1.20
2018-08-10T22:38:00.667Z,1.50
2018-08-10T22:40:28.149Z,1.60
2018-08-10T22:42:55.581Z,1.03
2018-08-10T22:45:23.000Z,1.63
2018-08-10T22:47:50.297Z,1.70
2018-08-10T22:50:17.704Z,1.30
2018-08-10T22:52:46.061Z,1.50
2018-08-10T22:55:13.355Z,1.40
2018-08-10T22:57:40.749Z,1.50
2018-08-10T23:00:08.140Z,1.30
2018-08-10T23:02:35.608Z,1.30
2018-08-10T23:05:02.967Z,1.40
2018-08-10T23:07:30.397Z,1.30
2018-08-10T23:09:57.732Z,1.50
2018-08-10T23:12:25.158Z,1.30
2018-08-10T23:14:52.548Z,1.50
2018-08-10T23:17:19.870Z,1.43
2018-08-10T23:19:47.209Z,1.30
2018-08-10T23:22:14.550Z,1.27
2018-08-10T23:24:41.856Z,1.40
2018-08-10T23:27:09.175Z,1.13
2018-08-10T23:29:36.532Z,1.60
2018-08-10T23:32:03.909Z,1.37
2018-08-10T23:34:31.272Z,1.43
2018-08-10T23:36:58.580Z,1.63
2018-08-10T23:39:26.778Z,1.50
2018-08-10T23:41:54.355Z,1.50
2018-08-10T23:44:21.686Z,1.17
2018-08-10T23:46:49.044Z,1.20
2018-08-10T23:49:16.796Z,1.10
2018-08-10T23:51:44.175Z,1.33
2018-08-10T23:54:11.530Z,1.30
2018-08-10T23:56:38.914Z,0.97
2018-08-10T23:59:06.247Z,1.37
